Marina Lobra — IXVN — position and weather

sailwx.info

Track history (hours):
 
Tides and Currents Weather Stations Pressure Air Temp Water Temp Dewpoint Dewpoint Depression Visibility Wind Speed Wind Dir Waves Ship Positions

Marina Lobra

Last reported at 2015-May-23 09:05 UTC. Time now 2015-May-24 17:22 UTC.
Position N 40°50' E 014°16'.

Length 56 m; draft 2.4 m.

Type: Ship (hazmat cat C). MMSI: 247188300.

Date/timePositionNaut miles runAvg speedWind from/ knotsBaromVisibWave heightAir tempDewpointWater temp
2015-May-23 09:05N 40°50' E 014°16'0 0.0
2015-May-23 06:26N 40°50' E 014°16'1 0.0
2015-May-22 13:28N 40°50' E 014°16'1 0.8
2015-May-22 12:32N 40°50' E 014°17'0 0.0
2015-May-22 11:33N 40°50' E 014°17'0 0.0
2015-May-22 09:16N 40°50' E 014°17'0 0.0
2015-May-22 08:17N 40°50' E 014°17'0 0.0
2015-May-22 07:34N 40°50' E 014°17'1 1.2
2015-May-22 06:33N 40°51' E 014°16'0 0.0
2015-May-21 13:30N 40°51' E 014°16'0 0.0
2015-May-21 12:33N 40°51' E 014°16'0 0.0
2015-May-21 11:33N 40°51' E 014°16'0 0.0
2015-May-21 10:32N 40°51' E 014°16'0 0.0
2015-May-21 09:30N 40°51' E 014°16'0 0.0
2015-May-21 08:33N 40°51' E 014°16'0 0.0
2015-May-21 07:33N 40°51' E 014°16'0 0.0
2015-May-21 06:31N 40°51' E 014°16'0 0.0
2015-May-20 14:33N 40°50' E 014°16'0 0.1
2015-May-20 13:33N 40°50' E 014°16'1 1.1
2015-May-20 12:33N 40°50' E 014°17'0 0.0
2015-May-20 11:33N 40°50' E 014°17'0 0.4
2015-May-20 10:29N 40°50' E 014°17'0 0.0
2015-May-20 07:19N 40°50' E 014°17'1 0.1
2015-May-19 16:26N 40°51' E 014°16'1 1.4
2015-May-19 15:33N 40°50' E 014°17'0 0.0
2015-May-19 14:33N 40°50' E 014°17'0 0.0
2015-May-19 13:33N 40°50' E 014°17'0 0.0
2015-May-19 12:33N 40°50' E 014°17'0 0.0
2015-May-19 11:33N 40°50' E 014°17'0 0.0
2015-May-19 10:33N 40°50' E 014°17'0 0.0
2015-May-19 09:33N 40°50' E 014°17'0 0.0
2015-May-19 08:33N 40°50' E 014°17'0 0.0
2015-May-19 07:33N 40°50' E 014°17'1 0.1
2015-May-18 14:30N 40°51' E 014°16'0 0.0
2015-May-18 13:05N 40°51' E 014°16'0 0.0
2015-May-18 12:29N 40°51' E 014°16'0 0.0
2015-May-18 11:20N 40°51' E 014°16'0 0.0
2015-May-18 10:30N 40°51' E 014°16'0 0.0
2015-May-18 09:32N 40°51' E 014°16'0 0.0
2015-May-18 08:32N 40°51' E 014°16'0 0.0
2015-May-18 07:33N 40°51' E 014°16'1 0.0
2015-May-16 07:31N 40°50' E 014°16'3 3.7
2015-May-16 06:33N 40°47' E 014°16'6 5.5
2015-May-16 05:33N 40°42' E 014°13'5 5.0
2015-May-16 04:33N 40°37' E 014°11'4 4.2
2015-May-16 03:33N 40°33' E 014°15'0 0.0
2015-May-15 23:16N 40°33' E 014°14'0 0.0
2015-May-15 22:33N 40°33' E 014°14'0 0.0
2015-May-15 21:33N 40°33' E 014°14'0 0.0
2015-May-15 20:33N 40°33' E 014°14'0 0.0
2015-May-15 19:33N 40°33' E 014°14'4 3.6
2015-May-15 18:33N 40°37' E 014°15'5 4.6
2015-May-15 17:33N 40°41' E 014°17'5 4.6
2015-May-15 16:33N 40°46' E 014°17'4 4.2
2015-May-15 15:33N 40°50' E 014°17'0 0.1
2015-May-15 14:33N 40°50' E 014°17'0 0.0
2015-May-15 13:33N 40°50' E 014°17'0 0.0
2015-May-15 12:32N 40°50' E 014°17'0 0.0
2015-May-15 11:33N 40°50' E 014°17'0 0.0
2015-May-15 10:33N 40°50' E 014°17'0 0.0
2015-May-15 09:31N 40°50' E 014°17'0 0.0
2015-May-15 08:32N 40°50' E 014°17'0 0.0
2015-May-15 07:30N 40°50' E 014°17'1 0.1
2015-May-14 11:22N 40°51' E 014°16'1 0.6
2015-May-14 09:33N 40°50' E 014°17'0 0.0
2015-May-14 08:33N 40°50' E 014°17'0 0.0
2015-May-14 07:33N 40°50' E 014°17'1 0.1
2015-May-13 15:13N 40°50' E 014°16'3 4.3
2015-May-13 14:33N 40°48' E 014°14'6 5.6
2015-May-13 13:33N 40°49' E 014°07'0 0.4
2015-May-13 12:33N 40°49' E 014°07'0 0.0
2015-May-13 11:33N 40°49' E 014°07'1 1.3
2015-May-13 10:33N 40°48' E 014°08'5 5.1
2015-May-13 09:33N 40°47' E 014°14'  
Track history (hours):
 
Tides and Currents Weather Stations Pressure Air Temp Water Temp Dewpoint Dewpoint Depression Visibility Wind Speed Wind Dir Waves Ship Positions

Marina Lobra

Last reported at 2015-May-23 09:05 UTC. Time now 2015-May-24 17:22 UTC.
Position N 40°50' E 014°16'.

Length 56 m; draft 2.4 m.

Type: Ship (hazmat cat C). MMSI: 247188300.

Date/timePositionNaut miles runAvg speedWind from/ knotsBaromVisibWave heightAir tempDewpointWater temp
2015-May-23 09:05N 40°50' E 014°16'0 0.0
2015-May-23 06:26N 40°50' E 014°16'1 0.0
2015-May-22 13:28N 40°50' E 014°16'1 0.8
2015-May-22 12:32N 40°50' E 014°17'0 0.0
2015-May-22 11:33N 40°50' E 014°17'0 0.0
2015-May-22 09:16N 40°50' E 014°17'0 0.0
2015-May-22 08:17N 40°50' E 014°17'0 0.0
2015-May-22 07:34N 40°50' E 014°17'1 1.2
2015-May-22 06:33N 40°51' E 014°16'0 0.0
2015-May-21 13:30N 40°51' E 014°16'0 0.0
2015-May-21 12:33N 40°51' E 014°16'0 0.0
2015-May-21 11:33N 40°51' E 014°16'0 0.0
2015-May-21 10:32N 40°51' E 014°16'0 0.0
2015-May-21 09:30N 40°51' E 014°16'0 0.0
2015-May-21 08:33N 40°51' E 014°16'0 0.0
2015-May-21 07:33N 40°51' E 014°16'0 0.0
2015-May-21 06:31N 40°51' E 014°16'0 0.0
2015-May-20 14:33N 40°50' E 014°16'0 0.1
2015-May-20 13:33N 40°50' E 014°16'1 1.1
2015-May-20 12:33N 40°50' E 014°17'0 0.0
2015-May-20 11:33N 40°50' E 014°17'0 0.4
2015-May-20 10:29N 40°50' E 014°17'0 0.0
2015-May-20 07:19N 40°50' E 014°17'1 0.1
2015-May-19 16:26N 40°51' E 014°16'1 1.4
2015-May-19 15:33N 40°50' E 014°17'0 0.0
2015-May-19 14:33N 40°50' E 014°17'0 0.0
2015-May-19 13:33N 40°50' E 014°17'0 0.0
2015-May-19 12:33N 40°50' E 014°17'0 0.0
2015-May-19 11:33N 40°50' E 014°17'0 0.0
2015-May-19 10:33N 40°50' E 014°17'0 0.0
2015-May-19 09:33N 40°50' E 014°17'0 0.0
2015-May-19 08:33N 40°50' E 014°17'0 0.0
2015-May-19 07:33N 40°50' E 014°17'1 0.1
2015-May-18 14:30N 40°51' E 014°16'0 0.0
2015-May-18 13:05N 40°51' E 014°16'0 0.0
2015-May-18 12:29N 40°51' E 014°16'0 0.0
2015-May-18 11:20N 40°51' E 014°16'0 0.0
2015-May-18 10:30N 40°51' E 014°16'0 0.0
2015-May-18 09:32N 40°51' E 014°16'0 0.0
2015-May-18 08:32N 40°51' E 014°16'0 0.0
2015-May-18 07:33N 40°51' E 014°16'1 0.0
2015-May-16 07:31N 40°50' E 014°16'3 3.7
2015-May-16 06:33N 40°47' E 014°16'6 5.5
2015-May-16 05:33N 40°42' E 014°13'5 5.0
2015-May-16 04:33N 40°37' E 014°11'4 4.2
2015-May-16 03:33N 40°33' E 014°15'0 0.0
2015-May-15 23:16N 40°33' E 014°14'0 0.0
2015-May-15 22:33N 40°33' E 014°14'0 0.0
2015-May-15 21:33N 40°33' E 014°14'0 0.0
2015-May-15 20:33N 40°33' E 014°14'0 0.0
2015-May-15 19:33N 40°33' E 014°14'4 3.6
2015-May-15 18:33N 40°37' E 014°15'5 4.6
2015-May-15 17:33N 40°41' E 014°17'5 4.6
2015-May-15 16:33N 40°46' E 014°17'4 4.2
2015-May-15 15:33N 40°50' E 014°17'0 0.1
2015-May-15 14:33N 40°50' E 014°17'0 0.0
2015-May-15 13:33N 40°50' E 014°17'0 0.0
2015-May-15 12:32N 40°50' E 014°17'0 0.0
2015-May-15 11:33N 40°50' E 014°17'0 0.0
2015-May-15 10:33N 40°50' E 014°17'0 0.0
2015-May-15 09:31N 40°50' E 014°17'0 0.0
2015-May-15 08:32N 40°50' E 014°17'0 0.0
2015-May-15 07:30N 40°50' E 014°17'1 0.1
2015-May-14 11:22N 40°51' E 014°16'1 0.6
2015-May-14 09:33N 40°50' E 014°17'0 0.0
2015-May-14 08:33N 40°50' E 014°17'0 0.0
2015-May-14 07:33N 40°50' E 014°17'1 0.1
2015-May-13 15:13N 40°50' E 014°16'3 4.3
2015-May-13 14:33N 40°48' E 014°14'6 5.6
2015-May-13 13:33N 40°49' E 014°07'0 0.4
2015-May-13 12:33N 40°49' E 014°07'0 0.0
2015-May-13 11:33N 40°49' E 014°07'1 1.3
2015-May-13 10:33N 40°48' E 014°08'5 5.1
2015-May-13 09:33N 40°47' E 014°14'  

Dump ship's entire track history